sensor_id;sensor_type;location;lat;lon;timestamp;temperature;humidity
46091;DHT22;31826;53.572;10.170;2022-09-25T00:01:37;12.50;99.90
46091;DHT22;31826;53.572;10.170;2022-09-25T00:04:03;12.50;99.90
46091;DHT22;31826;53.572;10.170;2022-09-25T00:06:29;12.60;99.90
46091;DHT22;31826;53.572;10.170;2022-09-25T00:08:59;12.50;99.90
46091;DHT22;31826;53.572;10.170;2022-09-25T00:11:31;12.60;99.90
46091;DHT22;31826;53.572;10.170;2022-09-25T00:13:59;12.50;99.90
46091;DHT22;31826;53.572;10.170;2022-09-25T00:16:28;12.50;99.90
46091;DHT22;31826;53.572;10.170;2022-09-25T00:18:55;12.50;99.90
46091;DHT22;31826;53.572;10.170;2022-09-25T00:21:40;12.50;99.90
46091;DHT22;31826;53.572;10.170;2022-09-25T00:24:08;12.50;99.90
46091;DHT22;31826;53.572;10.170;2022-09-25T00:26:38;12.50;99.90
46091;DHT22;31826;53.572;10.170;2022-09-25T00:29:06;12.50;99.90
46091;DHT22;31826;53.572;10.170;2022-09-25T00:31:32;12.50;99.90
46091;DHT22;31826;53.572;10.170;2022-09-25T00:33:59;12.50;99.90
46091;DHT22;31826;53.572;10.170;2022-09-25T00:36:26;12.50;99.90
46091;DHT22;31826;53.572;10.170;2022-09-25T00:38:52;12.50;99.90
46091;DHT22;31826;53.572;10.170;2022-09-25T00:41:21;12.40;99.90
46091;DHT22;31826;53.572;10.170;2022-09-25T00:43:55;12.50;99.90
46091;DHT22;31826;53.572;10.170;2022-09-25T00:46:39;12.50;99.90
46091;DHT22;31826;53.572;10.170;2022-09-25T00:49:14;12.40;99.90
46091;DHT22;31826;53.572;10.170;2022-09-25T00:51:51;12.40;99.90
46091;DHT22;31826;53.572;10.170;2022-09-25T00:54:22;12.40;99.90
46091;DHT22;31826;53.572;10.170;2022-09-25T00:56:50;12.40;99.90
46091;DHT22;31826;53.572;10.170;2022-09-25T00:59:20;12.40;99.90
46091;DHT22;31826;53.572;10.170;2022-09-25T01:01:47;12.40;99.90
46091;DHT22;31826;53.572;10.170;2022-09-25T01:04:13;12.40;99.90
46091;DHT22;31826;53.572;10.170;2022-09-25T01:06:39;12.40;99.90
46091;DHT22;31826;53.572;10.170;2022-09-25T01:09:05;12.40;99.90
46091;DHT22;31826;53.572;10.170;2022-09-25T01:11:31;12.30;99.90
46091;DHT22;31826;53.572;10.170;2022-09-25T01:14:01;12.40;99.90
46091;DHT22;31826;53.572;10.170;2022-09-25T01:19:18;12.40;99.90
46091;DHT22;31826;53.572;10.170;2022-09-25T01:22:19;12.40;99.90
46091;DHT22;31826;53.572;10.170;2022-09-25T01:29:55;12.50;99.90
46091;DHT22;31826;53.572;10.170;2022-09-25T01:38:24;12.40;99.90
46091;DHT22;31826;53.572;10.170;2022-09-25T01:41:08;12.40;99.90
46091;DHT22;31826;53.572;10.170;2022-09-25T01:43:43;12.40;99.90
46091;DHT22;31826;53.572;10.170;2022-09-25T01:46:14;12.40;99.90
46091;DHT22;31826;53.572;10.170;2022-09-25T01:48:44;12.40;99.90
46091;DHT22;31826;53.572;10.170;2022-09-25T01:51:24;12.40;99.90
46091;DHT22;31826;53.572;10.170;2022-09-25T01:53:59;12.40;99.90
46091;DHT22;31826;53.572;10.170;2022-09-25T01:56:35;12.40;99.90
46091;DHT22;31826;53.572;10.170;2022-09-25T01:59:09;12.30;99.90
46091;DHT22;31826;53.572;10.170;2022-09-25T02:01:40;12.30;99.90
46091;DHT22;31826;53.572;10.170;2022-09-25T02:04:17;12.30;99.90
46091;DHT22;31826;53.572;10.170;2022-09-25T02:06:48;12.30;99.90
46091;DHT22;31826;53.572;10.170;2022-09-25T02:09:26;12.30;99.90
46091;DHT22;31826;53.572;10.170;2022-09-25T02:11:55;12.30;99.90
46091;DHT22;31826;53.572;10.170;2022-09-25T02:14:31;12.30;99.90
46091;DHT22;31826;53.572;10.170;2022-09-25T02:16:59;12.30;99.90
46091;DHT22;31826;53.572;10.170;2022-09-25T02:19:28;12.30;99.90
46091;DHT22;31826;53.572;10.170;2022-09-25T02:22:16;12.30;99.90
46091;DHT22;31826;53.572;10.170;2022-09-25T02:25:00;12.30;99.90
46091;DHT22;31826;53.572;10.170;2022-09-25T02:27:28;12.30;99.90
46091;DHT22;31826;53.572;10.170;2022-09-25T02:29:54;12.30;99.90
46091;DHT22;31826;53.572;10.170;2022-09-25T02:32:26;12.30;99.90
46091;DHT22;31826;53.572;10.170;2022-09-25T02:34:53;12.30;99.90
46091;DHT22;31826;53.572;10.170;2022-09-25T02:37:18;12.30;99.90
46091;DHT22;31826;53.572;10.170;2022-09-25T02:39:51;12.30;99.90
46091;DHT22;31826;53.572;10.170;2022-09-25T02:42:41;12.30;99.90
46091;DHT22;31826;53.572;10.170;2022-09-25T02:51:02;12.30;99.90
46091;DHT22;31826;53.572;10.170;2022-09-25T02:53:46;12.30;99.90
46091;DHT22;31826;53.572;10.170;2022-09-25T02:58:48;12.40;99.90
46091;DHT22;31826;53.572;10.170;2022-09-25T03:01:16;12.30;99.90
46091;DHT22;31826;53.572;10.170;2022-09-25T03:03:47;12.30;99.90
46091;DHT22;31826;53.572;10.170;2022-09-25T03:06:14;12.30;99.90
46091;DHT22;31826;53.572;10.170;2022-09-25T03:08:44;12.30;99.90
46091;DHT22;31826;53.572;10.170;2022-09-25T03:11:14;12.40;99.90
46091;DHT22;31826;53.572;10.170;2022-09-25T03:13:40;12.40;99.90
46091;DHT22;31826;53.572;10.170;2022-09-25T03:16:15;12.30;99.90
46091;DHT22;31826;53.572;10.170;2022-09-25T03:18:45;12.40;99.90
46091;DHT22;31826;53.572;10.170;2022-09-25T03:21:11;12.40;99.90
46091;DHT22;31826;53.572;10.170;2022-09-25T03:23:37;12.40;99.90
46091;DHT22;31826;53.572;10.170;2022-09-25T03:26:03;12.30;99.90
46091;DHT22;31826;53.572;10.170;2022-09-25T03:28:32;12.40;99.90
46091;DHT22;31826;53.572;10.170;2022-09-25T03:31:06;12.40;99.90
46091;DHT22;31826;53.572;10.170;2022-09-25T03:33:35;12.40;99.90
46091;DHT22;31826;53.572;10.170;2022-09-25T03:36:06;12.40;99.90
46091;DHT22;31826;53.572;10.170;2022-09-25T03:38:34;12.40;99.90
46091;DHT22;31826;53.572;10.170;2022-09-25T03:41:00;12.40;99.90
46091;DHT22;31826;53.572;10.170;2022-09-25T03:43:27;12.40;99.90
46091;DHT22;31826;53.572;10.170;2022-09-25T03:45:54;12.40;99.90
46091;DHT22;31826;53.572;10.170;2022-09-25T03:48:20;12.40;99.90
46091;DHT22;31826;53.572;10.170;2022-09-25T03:50:46;12.40;99.90
46091;DHT22;31826;53.572;10.170;2022-09-25T03:53:14;12.40;99.90
46091;DHT22;31826;53.572;10.170;2022-09-25T03:55:40;12.40;99.90
46091;DHT22;31826;53.572;10.170;2022-09-25T03:58:06;12.40;99.90
46091;DHT22;31826;53.572;10.170;2022-09-25T04:00:31;12.40;99.90
46091;DHT22;31826;53.572;10.170;2022-09-25T04:02:57;12.30;99.90
46091;DHT22;31826;53.572;10.170;2022-09-25T04:05:24;12.30;99.90
46091;DHT22;31826;53.572;10.170;2022-09-25T04:07:49;12.40;99.90
46091;DHT22;31826;53.572;10.170;2022-09-25T04:10:15;12.30;99.90
46091;DHT22;31826;53.572;10.170;2022-09-25T04:12:41;12.30;99.90
46091;DHT22;31826;53.572;10.170;2022-09-25T04:15:08;12.40;99.90
46091;DHT22;31826;53.572;10.170;2022-09-25T04:17:34;12.30;99.90
46091;DHT22;31826;53.572;10.170;2022-09-25T04:20:00;12.30;99.90
46091;DHT22;31826;53.572;10.170;2022-09-25T04:22:26;12.30;99.90
46091;DHT22;31826;53.572;10.170;2022-09-25T04:24:52;12.40;99.90
46091;DHT22;31826;53.572;10.170;2022-09-25T04:27:21;12.40;99.90
46091;DHT22;31826;53.572;10.170;2022-09-25T04:29:48;12.40;99.90
46091;DHT22;31826;53.572;10.170;2022-09-25T04:32:15;12.40;99.90
46091;DHT22;31826;53.572;10.170;2022-09-25T04:34:59;12.40;99.90
46091;DHT22;31826;53.572;10.170;2022-09-25T04:37:25;12.40;99.90
46091;DHT22;31826;53.572;10.170;2022-09-25T04:39:55;12.40;99.90
46091;DHT22;31826;53.572;10.170;2022-09-25T04:42:21;12.40;99.90
46091;DHT22;31826;53.572;10.170;2022-09-25T04:44:53;12.40;99.90
46091;DHT22;31826;53.572;10.170;2022-09-25T04:47:22;12.30;99.90
46091;DHT22;31826;53.572;10.170;2022-09-25T04:49:48;12.40;99.90
46091;DHT22;31826;53.572;10.170;2022-09-25T04:52:14;12.40;99.90
46091;DHT22;31826;53.572;10.170;2022-09-25T04:54:41;12.40;99.90
46091;DHT22;31826;53.572;10.170;2022-09-25T04:57:08;12.40;99.90
46091;DHT22;31826;53.572;10.170;2022-09-25T04:59:34;12.40;99.90
46091;DHT22;31826;53.572;10.170;2022-09-25T05:02:00;12.40;99.90
46091;DHT22;31826;53.572;10.170;2022-09-25T05:04:25;12.40;99.90
46091;DHT22;31826;53.572;10.170;2022-09-25T05:06:51;12.40;99.90
46091;DHT22;31826;53.572;10.170;2022-09-25T05:09:17;12.40;99.90
46091;DHT22;31826;53.572;10.170;2022-09-25T05:11:45;12.40;99.90
46091;DHT22;31826;53.572;10.170;2022-09-25T05:14:11;12.40;99.90
46091;DHT22;31826;53.572;10.170;2022-09-25T05:16:37;12.40;99.90
46091;DHT22;31826;53.572;10.170;2022-09-25T05:19:02;12.30;99.90
46091;DHT22;31826;53.572;10.170;2022-09-25T05:21:29;12.40;99.90
46091;DHT22;31826;53.572;10.170;2022-09-25T05:23:54;12.40;99.90
46091;DHT22;31826;53.572;10.170;2022-09-25T05:26:21;12.40;99.90
46091;DHT22;31826;53.572;10.170;2022-09-25T05:28:48;12.40;99.90
46091;DHT22;31826;53.572;10.170;2022-09-25T05:31:15;12.40;99.90
46091;DHT22;31826;53.572;10.170;2022-09-25T05:33:41;12.40;99.90
46091;DHT22;31826;53.572;10.170;2022-09-25T05:36:08;12.40;99.90
46091;DHT22;31826;53.572;10.170;2022-09-25T05:38:36;12.40;99.90
46091;DHT22;31826;53.572;10.170;2022-09-25T05:41:04;12.40;99.90
46091;DHT22;31826;53.572;10.170;2022-09-25T05:43:32;12.40;99.90
46091;DHT22;31826;53.572;10.170;2022-09-25T05:45:58;12.40;99.90
46091;DHT22;31826;53.572;10.170;2022-09-25T05:48:24;12.40;99.90
46091;DHT22;31826;53.572;10.170;2022-09-25T05:50:51;12.40;99.90
46091;DHT22;31826;53.572;10.170;2022-09-25T05:53:17;12.50;99.90
46091;DHT22;31826;53.572;10.170;2022-09-25T05:55:51;12.50;99.90
46091;DHT22;31826;53.572;10.170;2022-09-25T05:58:17;12.50;99.90
46091;DHT22;31826;53.572;10.170;2022-09-25T06:00:43;12.40;99.90
46091;DHT22;31826;53.572;10.170;2022-09-25T06:03:09;12.50;99.90
46091;DHT22;31826;53.572;10.170;2022-09-25T06:05:36;12.50;99.90
46091;DHT22;31826;53.572;10.170;2022-09-25T06:08:02;12.50;99.90
46091;DHT22;31826;53.572;10.170;2022-09-25T06:10:28;12.50;99.90
46091;DHT22;31826;53.572;10.170;2022-09-25T06:12:59;12.50;99.90
46091;DHT22;31826;53.572;10.170;2022-09-25T06:15:26;12.60;99.90
46091;DHT22;31826;53.572;10.170;2022-09-25T06:17:53;12.50;99.90
46091;DHT22;31826;53.572;10.170;2022-09-25T06:20:19;12.50;99.90
46091;DHT22;31826;53.572;10.170;2022-09-25T06:22:56;12.50;99.90
46091;DHT22;31826;53.572;10.170;2022-09-25T06:25:24;12.50;99.90
46091;DHT22;31826;53.572;10.170;2022-09-25T06:27:54;12.60;99.90
46091;DHT22;31826;53.572;10.170;2022-09-25T06:30:24;12.50;99.90
46091;DHT22;31826;53.572;10.170;2022-09-25T06:32:58;12.60;99.90
46091;DHT22;31826;53.572;10.170;2022-09-25T06:35:25;12.60;99.90
46091;DHT22;31826;53.572;10.170;2022-09-25T06:37:51;12.60;99.90
46091;DHT22;31826;53.572;10.170;2022-09-25T06:40:16;12.60;99.90
46091;DHT22;31826;53.572;10.170;2022-09-25T06:42:43;12.60;99.90
46091;DHT22;31826;53.572;10.170;2022-09-25T06:45:10;12.60;99.90
46091;DHT22;31826;53.572;10.170;2022-09-25T06:47:36;12.70;99.90
46091;DHT22;31826;53.572;10.170;2022-09-25T06:50:02;12.70;99.90
46091;DHT22;31826;53.572;10.170;2022-09-25T06:52:28;12.70;99.90
46091;DHT22;31826;53.572;10.170;2022-09-25T06:54:54;12.70;99.90
46091;DHT22;31826;53.572;10.170;2022-09-25T06:57:19;12.70;99.90
46091;DHT22;31826;53.572;10.170;2022-09-25T06:59:45;12.80;99.90
46091;DHT22;31826;53.572;10.170;2022-09-25T07:02:11;12.80;99.90
46091;DHT22;31826;53.572;10.170;2022-09-25T07:04:55;12.80;99.90
46091;DHT22;31826;53.572;10.170;2022-09-25T07:07:20;12.80;99.90
46091;DHT22;31826;53.572;10.170;2022-09-25T07:09:48;12.90;99.90
46091;DHT22;31826;53.572;10.170;2022-09-25T07:12:15;12.90;99.90
46091;DHT22;31826;53.572;10.170;2022-09-25T07:14:42;13.00;99.90
46091;DHT22;31826;53.572;10.170;2022-09-25T07:17:09;13.00;99.90
46091;DHT22;31826;53.572;10.170;2022-09-25T07:19:34;13.00;99.90
46091;DHT22;31826;53.572;10.170;2022-09-25T07:22:00;13.10;99.90
46091;DHT22;31826;53.572;10.170;2022-09-25T07:24:26;13.10;99.90
46091;DHT22;31826;53.572;10.170;2022-09-25T07:26:52;13.20;99.90
46091;DHT22;31826;53.572;10.170;2022-09-25T07:29:18;13.10;99.90
46091;DHT22;31826;53.572;10.170;2022-09-25T07:31:43;13.20;99.90
46091;DHT22;31826;53.572;10.170;2022-09-25T07:34:09;13.20;99.90
46091;DHT22;31826;53.572;10.170;2022-09-25T07:36:38;13.30;99.90
46091;DHT22;31826;53.572;10.170;2022-09-25T07:39:04;13.30;99.90
46091;DHT22;31826;53.572;10.170;2022-09-25T07:41:31;13.30;99.90
46091;DHT22;31826;53.572;10.170;2022-09-25T07:43:57;13.30;99.90
46091;DHT22;31826;53.572;10.170;2022-09-25T07:46:24;13.40;99.90
46091;DHT22;31826;53.572;10.170;2022-09-25T07:48:50;13.40;99.90
46091;DHT22;31826;53.572;10.170;2022-09-25T07:51:16;13.50;99.90
46091;DHT22;31826;53.572;10.170;2022-09-25T07:53:42;13.40;99.90
46091;DHT22;31826;53.572;10.170;2022-09-25T07:56:12;13.50;99.90
46091;DHT22;31826;53.572;10.170;2022-09-25T07:58:38;13.50;99.90
46091;DHT22;31826;53.572;10.170;2022-09-25T08:01:06;13.60;99.90
46091;DHT22;31826;53.572;10.170;2022-09-25T08:03:32;13.50;99.90
46091;DHT22;31826;53.572;10.170;2022-09-25T08:06:02;13.50;99.90
46091;DHT22;31826;53.572;10.170;2022-09-25T08:08:29;13.50;99.90
46091;DHT22;31826;53.572;10.170;2022-09-25T08:11:03;13.50;99.90
46091;DHT22;31826;53.572;10.170;2022-09-25T08:13:32;13.50;99.90
46091;DHT22;31826;53.572;10.170;2022-09-25T08:16:01;13.60;99.90
46091;DHT22;31826;53.572;10.170;2022-09-25T08:18:27;13.60;99.90
46091;DHT22;31826;53.572;10.170;2022-09-25T08:20:53;13.60;99.90
46091;DHT22;31826;53.572;10.170;2022-09-25T08:23:18;13.60;99.90
46091;DHT22;31826;53.572;10.170;2022-09-25T08:25:47;13.60;99.90
46091;DHT22;31826;53.572;10.170;2022-09-25T08:28:14;13.60;99.90
46091;DHT22;31826;53.572;10.170;2022-09-25T08:30:40;13.60;99.90
46091;DHT22;31826;53.572;10.170;2022-09-25T08:33:11;13.60;99.90
46091;DHT22;31826;53.572;10.170;2022-09-25T08:35:38;13.60;99.90
46091;DHT22;31826;53.572;10.170;2022-09-25T08:38:06;13.60;99.90
46091;DHT22;31826;53.572;10.170;2022-09-25T08:40:35;13.50;99.90
46091;DHT22;31826;53.572;10.170;2022-09-25T08:43:02;13.60;99.90
46091;DHT22;31826;53.572;10.170;2022-09-25T08:45:39;13.50;99.90
46091;DHT22;31826;53.572;10.170;2022-09-25T08:48:31;13.40;99.90
46091;DHT22;31826;53.572;10.170;2022-09-25T08:51:16;13.40;99.90
46091;DHT22;31826;53.572;10.170;2022-09-25T08:53:42;13.40;99.90
46091;DHT22;31826;53.572;10.170;2022-09-25T08:56:11;13.50;99.90
46091;DHT22;31826;53.572;10.170;2022-09-25T08:58:50;13.50;99.90
46091;DHT22;31826;53.572;10.170;2022-09-25T09:01:25;13.40;99.90
46091;DHT22;31826;53.572;10.170;2022-09-25T09:04:45;13.40;99.90
46091;DHT22;31826;53.572;10.170;2022-09-25T09:06:57;13.40;99.90
46091;DHT22;31826;53.572;10.170;2022-09-25T09:09:27;13.40;99.90
46091;DHT22;31826;53.572;10.170;2022-09-25T09:12:17;13.40;99.90
46091;DHT22;31826;53.572;10.170;2022-09-25T09:14:47;13.40;99.90
46091;DHT22;31826;53.572;10.170;2022-09-25T09:17:19;13.40;99.90
46091;DHT22;31826;53.572;10.170;2022-09-25T09:20:15;13.40;99.90
46091;DHT22;31826;53.572;10.170;2022-09-25T09:22:47;13.40;99.90
46091;DHT22;31826;53.572;10.170;2022-09-25T09:25:27;13.40;99.90
46091;DHT22;31826;53.572;10.170;2022-09-25T09:28:20;13.40;99.90
46091;DHT22;31826;53.572;10.170;2022-09-25T09:31:08;13.40;99.90
46091;DHT22;31826;53.572;10.170;2022-09-25T09:33:53;13.40;99.90
46091;DHT22;31826;53.572;10.170;2022-09-25T09:42:06;13.40;99.90
46091;DHT22;31826;53.572;10.170;2022-09-25T09:48:02;13.40;99.90
46091;DHT22;31826;53.572;10.170;2022-09-25T09:50:40;13.30;99.90
46091;DHT22;31826;53.572;10.170;2022-09-25T09:53:12;13.40;99.90
46091;DHT22;31826;53.572;10.170;2022-09-25T09:55:50;13.40;99.90
46091;DHT22;31826;53.572;10.170;2022-09-25T09:58:32;13.50;99.90
46091;DHT22;31826;53.572;10.170;2022-09-25T10:01:02;13.50;99.90
46091;DHT22;31826;53.572;10.170;2022-09-25T10:03:31;13.60;99.90
46091;DHT22;31826;53.572;10.170;2022-09-25T10:06:01;13.60;99.90
46091;DHT22;31826;53.572;10.170;2022-09-25T10:08:28;13.60;99.90
46091;DHT22;31826;53.572;10.170;2022-09-25T10:10:54;13.60;99.90
46091;DHT22;31826;53.572;10.170;2022-09-25T10:13:26;13.60;99.90
46091;DHT22;31826;53.572;10.170;2022-09-25T10:16:03;13.70;99.90
46091;DHT22;31826;53.572;10.170;2022-09-25T10:18:35;13.60;99.90
46091;DHT22;31826;53.572;10.170;2022-09-25T10:21:10;13.50;99.90
46091;DHT22;31826;53.572;10.170;2022-09-25T10:29:00;13.30;99.90
46091;DHT22;31826;53.572;10.170;2022-09-25T10:31:37;13.30;99.90
46091;DHT22;31826;53.572;10.170;2022-09-25T10:34:05;13.30;99.90
46091;DHT22;31826;53.572;10.170;2022-09-25T10:39:36;13.20;99.90
46091;DHT22;31826;53.572;10.170;2022-09-25T10:42:33;13.10;99.90
46091;DHT22;31826;53.572;10.170;2022-09-25T10:45:33;13.00;99.90
46091;DHT22;31826;53.572;10.170;2022-09-25T10:47:59;13.10;99.90
46091;DHT22;31826;53.572;10.170;2022-09-25T10:50:44;13.10;99.90
46091;DHT22;31826;53.572;10.170;2022-09-25T10:53:26;13.20;99.90
46091;DHT22;31826;53.572;10.170;2022-09-25T10:56:05;13.20;99.90
46091;DHT22;31826;53.572;10.170;2022-09-25T10:58:41;13.20;99.90
46091;DHT22;31826;53.572;10.170;2022-09-25T11:01:09;13.10;99.90
46091;DHT22;31826;53.572;10.170;2022-09-25T11:03:57;13.00;99.90
46091;DHT22;31826;53.572;10.170;2022-09-25T11:06:29;13.10;99.90
46091;DHT22;31826;53.572;10.170;2022-09-25T11:11:38;13.10;99.90
46091;DHT22;31826;53.572;10.170;2022-09-25T11:14:07;13.10;99.90
46091;DHT22;31826;53.572;10.170;2022-09-25T11:16:50;13.10;99.90
46091;DHT22;31826;53.572;10.170;2022-09-25T11:22:15;13.00;99.90
46091;DHT22;31826;53.572;10.170;2022-09-25T11:25:12;13.20;99.90
46091;DHT22;31826;53.572;10.170;2022-09-25T11:30:38;13.20;99.90
46091;DHT22;31826;53.572;10.170;2022-09-25T11:33:22;13.30;99.90
46091;DHT22;31826;53.572;10.170;2022-09-25T11:36:59;13.30;99.90
46091;DHT22;31826;53.572;10.170;2022-09-25T11:38:54;13.30;99.90
46091;DHT22;31826;53.572;10.170;2022-09-25T11:44:33;13.10;99.90
46091;DHT22;31826;53.572;10.170;2022-09-25T11:49:35;12.90;99.90
46091;DHT22;31826;53.572;10.170;2022-09-25T11:52:27;13.10;99.90
46091;DHT22;31826;53.572;10.170;2022-09-25T12:06:41;12.90;99.90
46091;DHT22;31826;53.572;10.170;2022-09-25T12:09:38;12.80;99.90
46091;DHT22;31826;53.572;10.170;2022-09-25T12:15:06;12.90;99.90
46091;DHT22;31826;53.572;10.170;2022-09-25T12:18:09;12.80;99.90
46091;DHT22;31826;53.572;10.170;2022-09-25T12:20:56;12.90;99.90
46091;DHT22;31826;53.572;10.170;2022-09-25T12:23:37;12.90;99.90
46091;DHT22;31826;53.572;10.170;2022-09-25T12:29:14;12.80;99.90
46091;DHT22;31826;53.572;10.170;2022-09-25T12:38:16;12.90;99.90
46091;DHT22;31826;53.572;10.170;2022-09-25T12:40:51;12.90;99.90
46091;DHT22;31826;53.572;10.170;2022-09-25T12:43:26;13.00;99.90
46091;DHT22;31826;53.572;10.170;2022-09-25T12:45:59;13.00;99.90
46091;DHT22;31826;53.572;10.170;2022-09-25T12:48:39;13.10;99.90
46091;DHT22;31826;53.572;10.170;2022-09-25T12:51:18;13.20;99.90
46091;DHT22;31826;53.572;10.170;2022-09-25T12:53:53;13.10;99.90
46091;DHT22;31826;53.572;10.170;2022-09-25T12:56:38;13.30;99.90
46091;DHT22;31826;53.572;10.170;2022-09-25T12:59:22;13.40;99.90
46091;DHT22;31826;53.572;10.170;2022-09-25T13:09:54;14.70;99.90
46091;DHT22;31826;53.572;10.170;2022-09-25T13:15:19;15.10;99.90
46091;DHT22;31826;53.572;10.170;2022-09-25T13:17:48;15.20;99.90
46091;DHT22;31826;53.572;10.170;2022-09-25T13:25:21;14.80;99.90
46091;DHT22;31826;53.572;10.170;2022-09-25T13:27:48;14.80;99.90
46091;DHT22;31826;53.572;10.170;2022-09-25T13:30:26;14.70;99.90
46091;DHT22;31826;53.572;10.170;2022-09-25T13:32:58;14.70;99.90
46091;DHT22;31826;53.572;10.170;2022-09-25T13:35:29;14.50;99.90
46091;DHT22;31826;53.572;10.170;2022-09-25T13:38:15;14.20;99.90
46091;DHT22;31826;53.572;10.170;2022-09-25T13:41:12;14.20;99.90
46091;DHT22;31826;53.572;10.170;2022-09-25T13:43:38;14.00;99.90
46091;DHT22;31826;53.572;10.170;2022-09-25T13:48:39;14.20;99.90
46091;DHT22;31826;53.572;10.170;2022-09-25T14:01:44;14.10;99.90
46091;DHT22;31826;53.572;10.170;2022-09-25T14:06:44;14.10;99.90
46091;DHT22;31826;53.572;10.170;2022-09-25T14:09:12;14.10;99.90
46091;DHT22;31826;53.572;10.170;2022-09-25T14:11:41;14.10;99.90
46091;DHT22;31826;53.572;10.170;2022-09-25T14:14:13;14.10;99.90
46091;DHT22;31826;53.572;10.170;2022-09-25T14:16:49;14.00;99.90
46091;DHT22;31826;53.572;10.170;2022-09-25T14:19:28;13.90;99.90
46091;DHT22;31826;53.572;10.170;2022-09-25T14:21:55;14.00;99.90
46091;DHT22;31826;53.572;10.170;2022-09-25T14:24:27;14.00;99.90
46091;DHT22;31826;53.572;10.170;2022-09-25T14:26:58;14.00;99.90
46091;DHT22;31826;53.572;10.170;2022-09-25T14:29:30;14.00;99.90
46091;DHT22;31826;53.572;10.170;2022-09-25T14:35:21;14.00;99.90
46091;DHT22;31826;53.572;10.170;2022-09-25T14:38:10;14.10;99.90
46091;DHT22;31826;53.572;10.170;2022-09-25T14:41:09;14.00;99.90
46091;DHT22;31826;53.572;10.170;2022-09-25T14:46:25;13.80;99.90
46091;DHT22;31826;53.572;10.170;2022-09-25T14:48:55;13.80;99.90
46091;DHT22;31826;53.572;10.170;2022-09-25T14:51:32;13.90;99.90
46091;DHT22;31826;53.572;10.170;2022-09-25T14:54:03;13.70;99.90
46091;DHT22;31826;53.572;10.170;2022-09-25T14:56:30;13.70;99.90
46091;DHT22;31826;53.572;10.170;2022-09-25T14:59:11;13.50;99.90
46091;DHT22;31826;53.572;10.170;2022-09-25T15:01:45;13.60;99.90
46091;DHT22;31826;53.572;10.170;2022-09-25T15:04:31;13.60;99.90
46091;DHT22;31826;53.572;10.170;2022-09-25T15:07:10;13.70;99.90
46091;DHT22;31826;53.572;10.170;2022-09-25T15:09:39;13.70;99.90
46091;DHT22;31826;53.572;10.170;2022-09-25T15:12:30;13.90;99.90
46091;DHT22;31826;53.572;10.170;2022-09-25T15:17:31;14.10;99.90
46091;DHT22;31826;53.572;10.170;2022-09-25T15:20:00;14.10;99.90
46091;DHT22;31826;53.572;10.170;2022-09-25T15:22:36;14.10;99.90
46091;DHT22;31826;53.572;10.170;2022-09-25T15:25:06;14.10;99.90
46091;DHT22;31826;53.572;10.170;2022-09-25T15:27:33;14.10;99.90
46091;DHT22;31826;53.572;10.170;2022-09-25T15:29:59;14.00;99.90
46091;DHT22;31826;53.572;10.170;2022-09-25T15:32:34;14.00;99.90
46091;DHT22;31826;53.572;10.170;2022-09-25T15:35:17;14.10;99.90
46091;DHT22;31826;53.572;10.170;2022-09-25T15:37:45;14.00;99.90
46091;DHT22;31826;53.572;10.170;2022-09-25T15:40:18;14.00;99.90
46091;DHT22;31826;53.572;10.170;2022-09-25T15:42:47;13.90;99.90
46091;DHT22;31826;53.572;10.170;2022-09-25T15:50:50;13.80;99.90
46091;DHT22;31826;53.572;10.170;2022-09-25T15:53:30;13.70;99.90
46091;DHT22;31826;53.572;10.170;2022-09-25T15:58:44;13.80;99.90
46091;DHT22;31826;53.572;10.170;2022-09-25T16:01:12;13.80;99.90
46091;DHT22;31826;53.572;10.170;2022-09-25T16:03:57;13.70;99.90
46091;DHT22;31826;53.572;10.170;2022-09-25T16:06:43;13.80;99.90
46091;DHT22;31826;53.572;10.170;2022-09-25T16:09:22;13.80;99.90
46091;DHT22;31826;53.572;10.170;2022-09-25T16:11:52;13.70;99.90
46091;DHT22;31826;53.572;10.170;2022-09-25T16:14:26;13.70;99.90
46091;DHT22;31826;53.572;10.170;2022-09-25T16:16:56;13.70;99.90
46091;DHT22;31826;53.572;10.170;2022-09-25T16:21:52;13.60;99.90
46091;DHT22;31826;53.572;10.170;2022-09-25T16:24:24;13.60;99.90
46091;DHT22;31826;53.572;10.170;2022-09-25T16:26:59;13.50;99.90
46091;DHT22;31826;53.572;10.170;2022-09-25T16:29:28;13.40;99.90
46091;DHT22;31826;53.572;10.170;2022-09-25T16:32:00;13.40;99.90
46091;DHT22;31826;53.572;10.170;2022-09-25T16:34:31;13.40;99.90
46091;DHT22;31826;53.572;10.170;2022-09-25T16:37:03;13.30;99.90
46091;DHT22;31826;53.572;10.170;2022-09-25T16:39:30;13.30;99.90
46091;DHT22;31826;53.572;10.170;2022-09-25T16:41:57;13.20;99.90
46091;DHT22;31826;53.572;10.170;2022-09-25T16:49:22;12.90;99.90
46091;DHT22;31826;53.572;10.170;2022-09-25T16:51:50;12.90;99.90
46091;DHT22;31826;53.572;10.170;2022-09-25T16:54:19;12.70;99.90
46091;DHT22;31826;53.572;10.170;2022-09-25T16:56:47;12.60;99.90
46091;DHT22;31826;53.572;10.170;2022-09-25T16:59:17;12.60;99.90
46091;DHT22;31826;53.572;10.170;2022-09-25T17:01:44;12.50;99.90
46091;DHT22;31826;53.572;10.170;2022-09-25T17:04:12;12.30;99.90
46091;DHT22;31826;53.572;10.170;2022-09-25T17:06:40;12.20;99.90
46091;DHT22;31826;53.572;10.170;2022-09-25T17:09:12;12.10;99.90
46091;DHT22;31826;53.572;10.170;2022-09-25T17:11:39;12.00;99.90
46091;DHT22;31826;53.572;10.170;2022-09-25T17:14:06;11.90;99.90
46091;DHT22;31826;53.572;10.170;2022-09-25T17:16:35;11.90;99.90
46091;DHT22;31826;53.572;10.170;2022-09-25T17:19:01;11.80;99.90
46091;DHT22;31826;53.572;10.170;2022-09-25T17:21:26;11.70;99.90
46091;DHT22;31826;53.572;10.170;2022-09-25T17:23:52;11.70;99.90
46091;DHT22;31826;53.572;10.170;2022-09-25T17:26:20;11.70;99.90
46091;DHT22;31826;53.572;10.170;2022-09-25T17:28:46;11.60;99.90
46091;DHT22;31826;53.572;10.170;2022-09-25T17:31:17;11.70;99.90
46091;DHT22;31826;53.572;10.170;2022-09-25T17:33:44;11.60;99.90
46091;DHT22;31826;53.572;10.170;2022-09-25T17:36:11;11.60;99.90
46091;DHT22;31826;53.572;10.170;2022-09-25T17:38:37;11.50;99.90
46091;DHT22;31826;53.572;10.170;2022-09-25T17:41:16;11.50;99.90
46091;DHT22;31826;53.572;10.170;2022-09-25T17:43:44;11.50;99.90
46091;DHT22;31826;53.572;10.170;2022-09-25T17:46:09;11.50;99.90
46091;DHT22;31826;53.572;10.170;2022-09-25T17:48:35;11.40;99.90
46091;DHT22;31826;53.572;10.170;2022-09-25T17:51:09;11.40;99.90
46091;DHT22;31826;53.572;10.170;2022-09-25T17:53:36;11.30;99.90
46091;DHT22;31826;53.572;10.170;2022-09-25T17:56:02;11.20;99.90